Terminal Aerodrome Forecast
Issued by NWS Mt. Holly, NJ

Home | Current Version | Previous Version | Text Only | Print | Product List | Glossary On
Versions: 1 2 3 4 5 6 7 8 9 10 11 12 13 14 15 16 17 18 19 20 21
000
FTUS41 KPHI 291100 RRA
TAFTTN
TAF
KTTN 291143Z 2912/3012 VRB03KT P6SM SKC
     FM291700 15006KT P6SM BKN100
     FM300000 16006KT 3SM -SN OVC040
     FM300030 17006KT 1 1/2SM -SN SCT009 OVC015
     FM300400 19005KT 5SM -SHSN FEW010 OVC025=

USA.gov is the U.S. government's official web portal to all federal, state and local government web resources and services.